Middletown, Ohio
Current Conditions -  °F | °C
As of 10:15 AM on Wednesday 22 Oct 2014 (Local Time) from KMWO Reporting Station
Overcast Overcast  
Wind Chill: 47°   Ceiling: 2800
Heat Index: 49°   Visibility: 10mi
Dew Point: 42°   Wind: 6mph
Humidity: 75%   Direction: 20°NNE
Pressure: 30.31"   Gusts: NA
Location:  39.51°N, 84.4°W
Report Text: KMWO 221415Z AUTO 02005KT 10SM OVC028 10/05 A3031 RMK AO2 T00960053
Loading
Personal Weather Stations






























Interactive Weather Map
Tropical Storm Tracking
New forecast layout! Learn more

10-Day Weather Forecast

Advertisements
Track Severe Weather on mobile